Choose a state:
Most recent flow and stage for Oklahoma
(Stations highlighted in red are currently above flood stage)
USGS
station
ID
USGS station name NWS
flood
stage
(ft)
Most recent
stage
(ft)
Most recent
flow
(cfs)
Historical
peaks
(cfs)
Most recent
local
date/time
NWS
station
ID
07148400 Salt Fork Arkansas River nr Alva, OK 14.5 2.56 88.0 27,000 2019-08-20 21:30:00 AVAO2
07149520 Salt Fork Arkansas River at SH 11 nr Cherokee, OK   7.61 126 4,330 2019-08-20 21:00:00  
07151000 Salt Fork Arkansas River at Tonkawa, OK 17 4.50 486 97,300 2019-08-20 21:30:00 TONO2
07152000 Chikaskia River near Blackwell, OK 29 2.55 177 100,000 2019-08-20 21:30:00 BLKO2
07152500 Arkansas River at Ralston, OK 16 6.35 5,670 211,000 2019-08-20 21:15:00 RLSO2
07153000 Black Bear Creek at Pawnee, OK 17 1.88 21.9 30,200 2019-08-20 21:30:00 PAWO2
07154500 Cimarron River near Kenton, OK 20 4.67 0.00 43,400 2019-08-20 21:15:00 KENO2
07156900 Cimarron River near Forgan, OK 5 2.16 11.0 69,000 2019-08-20 21:00:00 FRGO2
07157950 Cimarron River near Buffalo, OK 9 3.24 28.7 26,400 2019-08-20 21:30:00 BFFO2
07158000 Cimarron River near Waynoka, OK 8 5.63 139 94,500 2019-08-20 21:30:00 WANO2
07159100 Cimarron River near Dover, OK 17 10.10 183 123,000 2019-08-20 21:30:00 DOVO2
07159550 Lake Hefner at Oklahoma City, OK   1199.30

 

  2019-08-20 21:45:00  
07159750 Cottonwood Creek near Seward, OK 30 4.21 40.0 43,500 2019-08-20 21:30:00 SCCO2
07160000 Cimarron River near Guthrie, OK 18 6.12 468 158,000 2019-08-20 21:30:00 GTRO2
07160350 Skeleton Creek at Enid, OK 11 2.50 5.88 9,860 2019-08-20 21:00:00 ESCO2
07160500 Skeleton Creek near Lovell, OK 35 10.31 323 75,200 2019-08-20 21:30:00 LVLO2
07161450 Cimarron River near Ripley, OK 17 7.59 73.9 141,000 2019-08-20 21:00:00 RIPO2
07164500 Arkansas River at Tulsa, OK 18 4.27 10,500 307,000 2019-08-20 21:30:00 TLSO2
07164600 Joe Creek at 61st St at Tulsa, OK 8 0.52 1.17 11,600 2019-08-20 21:50:00 TJOO2
07165562 Haikey Creek at 101st St South at Tulsa, OK 16 4.16 5.22 7,100 2019-08-20 21:40:00 THCO2
07165565 Little Haikey Creek at 101st St South at Tulsa, OK   5.26 0.87 4,300 2019-08-20 21:50:00  
07165570 Arkansas River near Haskell, OK 19 6.21 11,700 259,000 2019-08-20 21:00:00 HSKO2
07171000 Verdigris River near Lenapah, OK 30 7.52 3,010 192,000 2019-08-20 21:00:00 LEPO2
07174400 Caney River above Coon Creek at Bartlesville, OK 13 4.08 854 94,500 2019-08-20 21:00:00 BVLO2
07174470 Caney River at Tuxedo Blvd at Bartlesville, OK   7.82

 

  2019-08-20 21:45:00  
07174618 Sand Creek Below Little Rock Creek near Okesa, OK   7.29

 

  2019-08-20 21:00:00 OKEO2
07175500 Caney River near Ramona, OK 26 4.75 886 85,600 2019-08-20 20:45:00 RAMO2
07176000 Verdigris River near Claremore, OK 36 10.53 6,970 182,000 2019-08-20 21:30:00 CLRO2
07176321 Bird Creek at SH 99 at Pawhuska, OK   5.12 6.32 20,000 2019-08-20 21:45:00  
07176500 Bird Creek at Avant, OK 17 3.58 42.4 32,400 2019-08-20 21:30:00 AVTO2
07176950 Hominy Creek near Hominy, OK   5.79 0.49 20,500 2019-08-20 21:00:00  
07177500 Bird Creek near Sperry, OK 21 1.83 168 90,000 2019-08-20 21:00:00 SPEO2
07177650 Flat Rock Creek at Cincinnati Ave at Tulsa, OK   3.92 0.97 8,290 2019-08-20 21:45:00  
07177800 Coal Creek at Tulsa, OK   4.91 1.16 6,010 2019-08-20 21:45:00  
07178000 Bird Creek near Owasso, OK 18 4.82 197 29,200 2019-08-20 21:00:00 OWSO2
07178200 Bird Ck at State Highway 266 near Catoosa, OK   4.58 271 27,400 2019-08-20 21:30:00  
07178452 Verdigris River near Catoosa, OK   34.69

 

  2019-08-20 21:45:00  
07178645 Verdigris River near Wagoner, OK   12.47

 

  2019-08-20 21:00:00  
07185000 Neosho River near Commerce, OK 15 6.69 6,680 267,000 2019-08-20 21:30:00 COMO2
07185030 Elm Creek near Commerce, OK   6.73 2.02 1,720 2019-08-20 21:00:00  
07185080 Neosho River at Miami, OK   746.80

 

  2019-08-20 21:45:00  
07185090 Tar Creek near Commerce, OK   8.67 18.6 5,420 2019-08-20 21:15:00  
07185095 Tar Creek at 22nd Street Bridge at Miami, OK   4.16 23.8 12,400 2019-08-20 21:15:00  
07188000 Spring River near Quapaw, OK 20 7.63 1,450 230,000 2019-08-20 21:00:00 QUAO2
07188005 Beaver Creek near Quapaw, OK   2.22 0.83 1,210 2019-08-20 21:10:00  
07189000 Elk River near Tiff City, Mo 15 3.61 341 137,000 2019-08-20 21:30:00 TIFM7
07189540 Cave Springs Branch near South West City, MO   4.46 3.23 4,330 2019-08-20 21:00:00  
07189542 Honey Creek near South West City, MO   4.24 19.4 19,300 2019-08-20 21:30:00  
07190000 Lake O' the Cherokees at Langley, OK   745.47

 

  2019-08-20 21:00:00 PENO2
07190100 Neosho River (service road) near Langley, OK   17.31

 

  2019-08-20 21:00:00  
07190500 Neosho River near Langley, OK   14.09 15,000 300,000 2019-08-20 21:15:00  
07191000 Big Cabin Creek near Big Cabin, OK   13.24 116 63,000 2019-08-20 21:30:00  
07191160 Spavinaw Creek near Maysville, AR   6.98 61.6 14,800 2019-08-20 21:30:00  
07191179 Spavinaw Creek near Cherokee City, AR   6.14 76.2 15,100 2019-08-20 21:15:00  
07191220 Spavinaw Creek near Sycamore, OK   5.07 84.0 39,800 2019-08-20 21:30:00  
071912213 Spavinaw Creek near Colcord, OK   7.48 104 27,700 2019-08-20 21:15:00  
07191222 Beaty Creek near Jay, OK   5.13 17.1 26,700 2019-08-20 21:15:00  
07191285 Lake Eucha near Eucha, OK   777.91

 

  2019-08-20 21:45:00 NNEO2
07191288 Spavinaw Creek near Eucha, OK   8.37 158 79,600 2019-08-20 21:45:00  
07191300 Spavinaw Lake at Spavinaw, OK   680.17

 

  2019-08-20 21:30:00 SPAO2
07191400 Lake Hudson near Locust Grove, OK   619.60

 

  2019-08-20 21:00:00 MFDO2
07191500 Neosho River near Chouteau, OK   15.78 27,300 400,000 2019-08-20 21:00:00  
07192100 Spring Creek near Locust Grove, OK   12.39 32.4   2019-08-20 21:45:00  
07194500 Arkansas River near Muskogee, OK 28 17.27 23,000 700,000 2019-08-20 21:00:00 MKGO2
07194555 Arkansas River at Gore, OK   60.92

 

  2019-08-20 21:45:00  
07195500 Illinois River near Watts, OK 13 2.77 330 128,000 2019-08-20 21:30:00 WTTO2
07195855 Flint Creek near West Siloam Springs, OK   4.59 50.9 15,900 2019-08-20 21:30:00  
07195865 Sager Creek near West Siloam Springs, OK   5.93 5.83 5,020 2019-08-20 21:15:00  
07196000 Flint Creek near Kansas, OK 11 6.26 65.7 44,400 2019-08-20 21:30:00 KNSO2
07196090 Illinois River at Chewey, OK 12 3.94 374 124,000 2019-08-20 21:15:00 CWYO2
07196320 Illinois River near Moodys, OK   4.42

 

  2019-08-20 21:00:00  
07196500 Illinois River near Tahlequah, OK 11 5.51 420 150,000 2019-08-20 21:30:00 TALO2
07197000 Baron Fork at Eldon, OK 18 5.89 160 63,400 2019-08-20 21:30:00 ELDO2
07197360 Caney Creek near Barber, OK   9.93 Bkw 13,100 2019-08-20 21:00:00  
07198000 Illinois River near Gore, OK 23 7.77 396 180,000 2019-08-20 21:30:00 GORO2
07228500 Canadian River at Bridgeport, OK 14 9.28 43.9 150,000 2019-08-20 21:30:00 BRIO2
07228940 Canadian River near Mustang, OK 12 0.64 0.17 73,500 2019-08-20 21:00:00 TUCO2
07229050 Canadian River at Norman, OK 94 86.36 70.1 49,700 2019-08-20 21:00:00 NRCO2
07229300 Walnut Creek at Purcell, OK   3.94 120 67,700 2019-08-20 21:30:00  
07229445 Stanley Draper Lake near Oklahoma City, OK   1189.27

 

  2019-08-20 21:30:00  
07229900 Lake Thunderbird near Norman, OK   1038.00

 

  2019-08-20 21:00:00  
07230000 Little River blw Lk Thunderbird nr Norman, OK   3.04 1.14 34,600 2019-08-20 21:00:00  
07230500 Little River near Tecumseh, OK 11 4.21 18.0 60,000 2019-08-20 21:30:00 TCMO2
07231000 Little River near Sasakwa, OK 26 2.88 17.1 44,600 2019-08-20 21:30:00 SASO2
07231500 Canadian River at Calvin, OK 20 6.29 889 174,000 2019-08-20 21:00:00 CLVO2
07232470 Beaver River near Goodwell, OK 24 5.67

 

114 2019-08-20 21:30:00 GBRO2
07234000 Beaver River at Beaver, OK 9 2.11 0.06 70,000 2019-08-20 21:00:00 BVRO2
07235600 Wolf Creek nr Gage, OK   5.62 8.74 2,090 2019-08-20 21:30:00  
07237500 North Canadian River at Woodward, OK 9 3.08 52.8 42,000 2019-08-20 21:00:00 WDGO2
07238000 North Canadian River near Seiling, OK 11 5.00 126 33,000 2019-08-20 21:00:00 SEIO2
07238500 Canton Lake near Canton, OK   1617.75

 

  2019-08-20 21:00:00  
07239000 North Canadian River at Canton, OK   17.80

 

24,800 2019-08-20 21:00:00  
07239300 North Canadian River blw Weavers Ck nr Watonga, OK 15 12.25 792 7,220 2019-08-20 21:30:00 WATO2
07239450 North Canadian River near Calumet, OK   9.01 741 23,900 2019-08-17 23:00:00  
07239500 North Canadian River near El Reno, OK 17 7.23 1,050 23,800 2019-08-20 21:00:00 ELNO2
07239700 North Canadian River near Yukon, OK 14 4.70 867 25,100 2019-08-20 21:30:00 YUKO2
07240000 Lake Hefner Canal near Oklahoma City, OK   6.06 65.8   2019-08-20 21:30:00  
07240200 North Canadian R at Hwy 66 at Oklahoma City, OK   1241.98

 

  2019-08-20 21:30:00  
07240500 Lake Overholser near Oklahoma City, OK   1241.71

 

  2019-08-20 21:00:00  
07241000 North Canadian River blw Lk Overholser nr OKC, OK 24 8.38 611 135,000 2019-08-20 21:00:00 OLBO2
07241520 North Canadian River at Britton Rd at OKC, OK 17 7.73 501 38,100 2019-08-20 21:00:00 OKBO2
07241550 North Canadian River near Harrah, OK 14 6.39 551 27,200 2019-08-20 21:00:00 HRHO2
07241588 Wes Watkins Reservoir near McLoud, OK   1073.24

 

  2019-08-20 21:00:00  
07241600 Shawnee Lake No 1 at Shawnee, OK   1073.97

 

  2019-08-20 21:00:00  
07241780 Squirrel Creek at Shawnee, OK   2.92 22.2 1,380 2019-08-20 21:00:00  
07241800 North Canadian River at Shawnee, OK 24 11.59 941 23,500 2019-08-20 20:30:00 SNCO2
07242000 North Canadian River near Wetumka, OK 24 7.32 1,010 66,000 2019-08-20 21:00:00 WETO2
07242380 Deep Fork at Warwick, OK 21 4.63 28.2 34,600 2019-08-20 21:00:00 WRWO2
07243500 Deep Fork near Beggs, OK 18 0.70 80.5 66,800 2019-08-20 21:15:00 BGSO2
07245000 Canadian River near Whitefield, OK   5.20 6,360 281,000 2019-08-20 21:30:00 WHTO2
07246500 Arkansas River near Sallisaw, OK   17.35

 

544,000 2019-08-20 21:45:00  
07247015 Poteau River at Loving, OK   8.76 4.61 37,000 2019-08-20 21:30:00 LVNO2
07247250 Black Fork below Big Creek nr Page, OK   4.34 5.94 36,000 2019-08-20 21:00:00  
07247500 Fourche Maline near Red Oak, OK   2.29 1.59 41,500 2019-08-20 21:30:00  
07249413 Poteau River near Panama, OK 29 9.41 782 82,100 2019-08-20 21:30:00 PANO2
07249455 Arkansas River at Ft. Smith, Ar.   12.71 58,900 414,000 2019-08-20 21:15:00  
07249800 Lee Creek at Short, OK   2.12 0.35 63,500 2019-08-20 21:15:00  
07249920 Little Lee Creek near Nicut, OK   0.58 3.55 27,800 2019-08-20 21:00:00  
07249985 Lee Creek near Short, OK   1.80 108 111,000 2019-08-20 21:30:00  
07300500 Salt Fork Red River at Mangum, OK   2.43 3.24 72,000 2019-08-20 21:45:00 MGMO2
07301110 Salt Fork Red River near Elmer, OK 14 7.16 104 44,900 2019-08-20 21:00:00 ESFO2
07301420 Sweetwater Creek near Sweetwater, OK   6.61 0.00 1,940 2019-08-20 21:00:00  
07301481 North Fork Red River near Sayre, OK 11 2.94

 

  2019-08-20 21:00:00 SAYO2
07301500 North Fork Red River near Carter, OK 16 4.85 27.9 53,400 2019-08-20 21:00:00 CARO2
07302500 Lake Altus at Lugert, OK   1549.46

 

  2019-08-20 21:30:00 ALTO2
07302520 Lugert Drainage Ditch at Lugert, OK   0.44

 

  2019-08-20 21:00:00  
07303000 North Fork Red River blw Altus Dam nr Lugert, OK   5.47 0.64 16,100 2019-08-20 21:45:00  
07303400 Elm Fork of North Fork Red River nr Carl, OK 14 5.41 3.69 62,300 2019-08-20 21:00:00 CRLO2
07305000 North Fork Red River near Headrick, OK 14 6.37 53.1 60,000 2019-08-20 21:00:00 HEAO2
07307010 Otter Creek near Snyder, OK 11 5.82

 

5,240 2019-07-08 21:30:00 SYDO2
07307028 North Fork Red River near Tipton, OK 14 6.22 224 57,200 2019-08-20 21:30:00 TIPO2
07308990 Lake Ellsworth near Elgin, OK 1235 1230.96

 

  2019-08-20 21:45:00 ELWO2
07309500 Lake Lawtonka near Lawton, OK 1345.6 1340.94

 

  2019-08-20 21:30:00 LTLO2
07309990 East Cache Creek nr Lawton, OK   5.08 7.27 23,800 2019-08-20 21:00:00  
07311000 East Cache Creek near Walters, OK 21 4.76 16.0 50,900 2019-08-20 21:30:00 WLTO2
07311240 West Cache Creek near Cookietown, OK   4.68 0.40 15,400 2019-08-20 21:00:00  
07311415 Lake Frederick nr Frederick, OK   1198.42

 

  2019-08-20 21:30:00  
07311500 Deep Red Creek near Randlett, OK 20 3.40 55.6 72,300 2019-08-20 21:30:00 RNDO2
07312920 Beaver Creek nr Hulen, OK   7.65

 

  2019-08-20 21:45:00  
07313000 Little Beaver Creek near Duncan, OK 20 7.60

 

47,500 2019-08-18 01:30:00 DLBO2
07313585 Cow Creek nr Addington, OK   2.46

 

  2019-08-20 21:45:00  
07315500 Red Rv nr Terral, OK 22 7.00 552 236,000 2019-08-20 21:00:00 TRLO2
07315650 Red River nr Courtney, OK   11.26

 

  2019-08-20 21:30:00  
07315700 Mud Creek near Courtney, OK 20 7.79 9.88 64,300 2019-08-20 21:30:00 CORO2
07316000 Red River near Gainesville, TX 25 8.01 696 265,000 2019-08-20 21:00:00 GSVT2
07316500 Washita River near Cheyenne, OK 13.5 6.21 0.67 69,800 2019-08-20 21:00:00 CHYO2
07324200 Washita River near Hammon, OK 22 7.83 20.5 167,000 2019-08-20 21:45:00 HMMO2
07324300 Foss Reservoir near Foss, OK   1641.75

 

  2019-08-20 21:00:00 FOSO2
07324400 Washita River near Foss, OK 18 6.94 8.46 14,000 2019-08-20 21:45:00 FBFO2
07325000 Washita River near Clinton, OK 18 5.41 43.8 90,000 2019-08-20 21:30:00 CLIO2
07325500 Washita River at Carnegie, OK 25 4.33

 

50,000 2019-08-19 17:00:00 CAGO2
07325800 Cobb Creek near Eakly, OK   3.33 14.0 12,000 2019-08-20 21:30:00  
07325840 Lake Creek near Sickles, OK   3.86 1.48 1,630 2019-08-20 21:45:00  
07325850 Lake Creek near Eakly, OK   5.82 3.63 8,310 2019-08-20 21:00:00  
07325860 Willow Creek near Albert, OK   2.69 7.12 12,000 2019-08-20 21:30:00  
07325900 Fort Cobb Reservoir near Fort Cobb, OK   1341.90

 

  2019-08-20 21:00:00  
07326000 Cobb Creek near Fort Cobb, OK 15 3.28 1.84 51,000 2019-08-20 21:00:00 FCCO2
07326500 Washita River at Anadarko, OK 19 7.23 243 52,800 2019-08-20 21:30:00 ANDO2
07327442 Little Washita River near Cyril, OK   10.28 2.33 3,120 2019-08-20 21:15:00  
07327447 Little Washita River near Cement, OK   3.11 5.73 3,770 2019-08-20 21:45:00  
07327550 Little Washita River East of Ninnekah, OK 20 6.61 9.52 9,920 2019-08-20 21:00:00 NKHO2
07328100 Washita River at Alex, OK 28 1.68 284 53,600 2019-08-20 21:00:00 ALXO2
07328180 North Criner Creek near Criner, OK   2.78 0.34 1,640 2019-08-20 21:15:00  
07328500 Washita River near Pauls Valley, OK 29 5.15 293 43,600 2019-08-20 21:30:00 PLVO2
07329605 Lake Humphreys near Duncan, OK   1176.92

 

  2019-08-20 21:00:00  
07329610 Lake Fuqua near Duncan, OK   1076.54

 

  2019-08-20 21:00:00  
07329700 Wildhorse Creek near Hoover, OK 25 10.25

 

40,600 2019-05-31 06:30:00 HVRO2
07329780 Honey Creek below Turner Falls near Davis, OK   1.29 2.90 8,270 2019-08-20 21:30:00  
07329849 01S-03E-01 ABB 1 Antelope Spring at Sulphur, OK   2.93 2.57 11.0 2019-08-20 21:00:00  
073298507 Travertine Creek above U.S. 177 at Sulphur   5.12 15.2 876 2019-08-20 21:00:00  
07329852 Rock Creek at Sulphur, OK 23 5.88 20.7 17,000 2019-08-20 21:45:00 SRCO2
07331000 Washita River near Dickson, OK 27 7.78 1,350 126,000 2019-08-20 21:30:00 DURO2
07331200 Mill Creek near Mill Creek, OK   6.05 0.51 4,010 2019-08-20 20:30:00  
07331293 Pennington Creek North of Mill Creek, OK   2.58

 

  2019-08-20 21:30:00  
07331295 Pennington Creek East of Mill Creek, OK   2.53 10.7 2,510 2019-08-20 21:30:00  
07331300 Pennington Creek near Reagan, OK   10.90 23.5 9,970 2019-08-20 21:30:00  
07331383 Pennington Creek at Capitol Ave at Tishomingo, OK   1.10 41.4 9,360 2019-08-20 21:00:00  
07331455 Lake Texoma at Cumberland Cut nr Cumberland, OK   617.27

 

  2019-08-20 21:30:00  
07331600 Red River at Denison Dam nr Denison, TX   8.27 7,450 71,700 2019-08-20 21:00:00 DSTT2
07332307 Blue River near Franks, OK   4.90

 

  2019-08-20 21:30:00  
07332348 Blue River North of Connerville, OK   2.26

 

  2019-08-20 21:30:00  
07332390 Blue River near Connerville, OK   5.76 65.4 12,600 2019-08-20 20:45:00  
07332500 Blue River near Blue, OK 28 6.14 58.8 65,200 2019-08-20 21:30:00 BLUO2
07333010 Atoka Reservoir near Stringtown, OK   584.44

 

  2019-08-20 21:30:00  
07333900 McGee Creek Reservoir near Farris, OK   575.43

 

  2019-08-20 21:15:00 MGCO2
07334000 Muddy Boggy Creek near Farris, OK 43 7.13 19.8 61,900 2019-08-20 21:30:00 FRSO2
07334238 Sheep Creek Spring near Fittstown, OK   5.29 2.84 9.92 2019-08-20 21:30:00  
07334800 Clear Boggy Creek abv Caney Creek nr Caney, OK 26 9.42 7.62 30,200 2019-08-20 20:30:00 CANO2
07335300 Muddy Boggy Creek near Unger, OK   8.37 56.7 76,700 2019-08-20 21:00:00  
07335500 Red River at Arthur City, TX 27 7.10 4,200 400,000 2019-08-20 21:00:00 ARCT2
07335700 Kiamichi River near Big Cedar, OK   2.65 0.36 27,400 2019-08-20 21:30:00  
07335790 Kiamichi River near Clayton, OK 17 3.16 9.38 48,600 2019-08-20 21:00:00 CLTO2
07335840 Pine Creek at Eubanks, OK   4.50

 

  2019-08-20 21:15:00  
07336200 Kiamichi River near Antlers, OK 25 1.59 5.10 62,300 2019-08-20 21:30:00 ANTO2
07336820 Red River near De Kalb, TX 24 10.82 3,820 299,000 2019-08-20 21:00:00 DEKT2
07337900 Glover River near Glover, OK 16 2.74 1.59 98,600 2019-08-20 21:30:00 GLOO2
07338500 Little River blw Lukfata Creek, nr Idabel, OK 30 5.11 77.4 103,000 2019-08-20 21:30:00 IDBO2
07338750 Mountain Fork at Smithville, OK   6.24 10.5 65,200 2019-08-20 21:30:00  
07339000 Mountain Fork near Eagletown, OK 11 5.34 3,490 101,000 2019-08-20 21:30:00 EAGO2